El Tepual Airport
SCTE : now visible

Airfield :











YOU CAN JOIN US ON...

 
LOGIN :

Register | Disclaimer

   EN    FR    IT 

 









Legend :    VFR   Marginal VFR   IFR   Intensive IFR   Very Intensive IFR
Visi :
Ceiling :
>= 8 km
>= 3000ft
5 to 8 km
1000 to 3000 ft
1500m to 5 km
500 to 1000 ft
800 to 1500m
200 to 500 ft
< 800m
< 200 ft
Symbols :   Thunderstorms  Fog  Heavy snow  Heavy precipitations  Wind > 20 kt






- Airport Elevation : 294 ft
- IATA code : PMC


SCTE - El Tepual

CURRENT METAR :
  • 021100Z 18007KT 2500 0800N BCFG SCT004 BKN020 09/09 Q1026 NOSIG

EXPIRED METARs :
  • 021019Z VRB02KT 0800 R35/P2000N FG BKN002 06/06 Q1026 NOSIG
  • 021000Z 18006KT 3000 BR SCT007 09/09 Q1026 NOSIG
  • 020900Z 20005KT 9999 FEW006 10/09 Q1027 NOSIG

TAF TAF SCTE
Valid from the 02 at 12:00 until the 03 at 12:00 UTC


021020Z 0212/0312 VRB03KT 5000 BR SCT005 TX18/0219Z TN07/0307Z
BECMG 0312/0314 18012KT CAVOK
TEMPO 0301/0304 18004KT 5000 BR SCT002
BECMG 0304/0306 20004KT BKN005
TEMPO 0306/0312 5000 BR OVC007



MET'MAP, your aeronautical weather chart ! - Copyright ORBIFLY December 2007 - Disclaimer

ORBIFLY MET'MAP TEAM :

Programming & Development : Alexandra Zaïnal
Concept & original design : Baudouin d'Aumeries
Assistance for programming : Marc-Olivier Méhu
Technical & hardware support : Manuel Goepfert

Contact : metmap@orbifly.com




SOURCES & CREDITS :

   NOAA       Earth
Advisory